Time;durP1;ratioP1;P1;durP2;ratioP2;P2;SDS_P1;SDS_P2;PMS_P1;PMS_P2;Temp;Humidity;BMP_temperature;BMP_pressure;BME280_temperature;BME280_humidity;BME280_pressure;Samples;Min_cycle;Max_cycle;Signal;HPM_P1;HPM_P2
2023/04/09 00:09:34;;;;;;;16.88;6.55;;;9.10;24.00;;;;;;20730952;28;20057;-42
2023/04/09 00:19:35;;;;;;;11.63;6.22;;;9.20;19.30;;;;;;20726708;28;20396;-42
2023/04/09 00:29:36;;;;;;;13.18;6.22;;;9.10;17.80;;;;;;20778068;28;20045;-42
2023/04/09 00:39:37;;;;;;;11.20;5.65;;;9.00;16.70;;;;;;20745926;28;20872;-42
2023/04/09 00:49:39;;;;;;;11.93;6.88;;;9.10;18.70;;;;;;20731589;28;20076;-42
2023/04/09 00:59:40;;;;;;;10.15;6.20;;;9.10;21.90;;;;;;20740714;28;20092;-42
2023/04/09 01:09:53;;;;;;;15.52;7.60;;;9.20;18.60;;;;;;20740386;28;20052;-42
2023/04/09 01:20:02;;;;;;;13.90;7.15;;;9.20;18.30;;;;;;20818103;28;20967;-42
2023/04/09 01:30:05;;;;;;;12.85;6.50;;;9.20;16.00;;;;;;20805109;28;20528;-42
2023/04/09 01:40:07;;;;;;;16.05;7.93;;;9.30;14.30;;;;;;20822473;28;20037;-42
2023/04/09 01:50:08;;;;;;;21.15;8.30;;;9.30;14.20;;;;;;20812687;28;20041;-42
2023/04/09 02:00:11;;;;;;;17.50;8.85;;;9.30;15.50;;;;;;20832592;28;20050;-42
2023/04/09 02:10:12;;;;;;;21.50;9.57;;;9.30;16.90;;;;;;20811672;28;20095;-41
2023/04/09 02:20:17;;;;;;;14.02;7.35;;;9.40;15.30;;;;;;20828140;28;20513;-42
2023/04/09 02:40:59;;;;;;;16.05;8.10;;;9.50;12.20;;;;;;21367182;23;21164;-85
2023/04/09 02:51:00;;;;;;;12.18;6.63;;;9.50;10.40;;;;;;20625970;28;20628;-86
2023/04/09 03:01:01;;;;;;;18.10;6.82;;;9.50;11.20;;;;;;20635337;28;20441;-83
2023/04/09 03:11:02;;;;;;;10.63;5.90;;;9.50;10.20;;;;;;20610845;28;20042;-84
2023/04/09 03:21:07;;;;;;;20.92;9.20;;;9.40;9.10;;;;;;20608086;28;20054;-85
2023/04/09 03:31:08;;;;;;;13.68;7.03;;;9.50;9.60;;;;;;20604952;28;20121;-85
2023/04/09 03:41:09;;;;;;;13.63;7.70;;;9.50;8.00;;;;;;20605752;28;20075;-84
2023/04/09 03:51:12;;;;;;;12.40;6.55;;;9.50;7.30;;;;;;20611742;28;20039;-85
2023/04/09 04:01:13;;;;;;;12.85;6.70;;;9.50;6.40;;;;;;20615279;28;20078;-85
2023/04/09 04:11:14;;;;;;;17.15;8.13;;;9.50;7.70;;;;;;20610489;28;20035;-85
2023/04/09 04:21:16;;;;;;;14.43;7.05;;;9.40;7.30;;;;;;20602228;28;20105;-83
2023/04/09 04:31:17;;;;;;;16.50;6.88;;;9.40;7.40;;;;;;20601028;28;20101;-83
2023/04/09 04:41:18;;;;;;;16.25;6.90;;;9.40;5.90;;;;;;20635009;28;20042;-85
2023/04/09 04:51:19;;;;;;;10.90;7.75;;;9.40;4.90;;;;;;20600378;28;20039;-86
2023/04/09 05:01:20;;;;;;;11.32;5.43;;;9.40;4.90;;;;;;20613575;28;20030;-85
2023/04/09 05:11:21;;;;;;;14.13;6.70;;;9.40;4.20;;;;;;20606922;28;20035;-85
2023/04/09 05:21:22;;;;;;;15.45;7.00;;;9.40;4.40;;;;;;20602893;28;20030;-86
2023/04/09 05:31:23;;;;;;;15.13;6.78;;;9.40;4.50;;;;;;20617178;28;20442;-86
2023/04/09 05:41:24;;;;;;;14.93;6.43;;;9.40;3.70;;;;;;20618255;28;20050;-86
2023/04/09 05:51:25;;;;;;;12.40;6.22;;;9.50;2.20;;;;;;20626106;28;20039;-86
2023/04/09 06:01:26;;;;;;;13.82;5.78;;;9.40;1.70;;;;;;20620029;28;20033;-85
2023/04/09 06:11:27;;;;;;;12.48;7.25;;;9.40;4.50;;;;;;20617244;28;20057;-85
2023/04/09 06:21:28;;;;;;;14.57;6.10;;;9.50;4.60;;;;;;20625245;28;20038;-85
2023/04/09 06:31:29;;;;;;;13.88;7.85;;;9.50;5.10;;;;;;20622513;28;20042;-84
2023/04/09 06:41:31;;;;;;;17.63;9.05;;;9.50;6.30;;;;;;20614065;28;20055;-86
2023/04/09 06:51:32;;;;;;;20.42;9.77;;;9.60;6.00;;;;;;20625477;28;20038;-84
2023/04/09 07:01:34;;;;;;;28.98;12.90;;;9.50;1.00;;;;;;20617109;28;20041;-84
2023/04/09 07:11:35;;;;;;;23.92;10.68;;;9.40;1.00;;;;;;20618520;28;20035;-85
2023/04/09 07:21:37;;;;;;;18.63;10.90;;;9.50;1.00;;;;;;20614261;28;20091;-85
2023/04/09 07:31:38;;;;;;;18.88;8.07;;;9.50;1.00;;;;;;20622664;28;20050;-86
2023/04/09 07:41:39;;;;;;;17.17;9.07;;;9.50;1.00;;;;;;20657725;28;20046;-85
2023/04/09 07:51:40;;;;;;;20.10;10.13;;;9.50;1.00;;;;;;20685544;28;20034;-85
2023/04/09 08:01:42;;;;;;;21.23;10.38;;;9.60;1.00;;;;;;20691896;28;20037;-85
2023/04/09 08:11:47;;;;;;;19.90;11.95;;;9.60;1.00;;;;;;20685875;28;20038;-85
2023/04/09 08:21:48;;;;;;;21.58;10.77;;;9.50;1.00;;;;;;20693149;28;20092;-82
2023/04/09 08:31:49;;;;;;;20.67;8.73;;;9.60;1.00;;;;;;20669847;28;20047;-85
2023/04/09 08:41:51;;;;;;;18.65;9.20;;;9.90;1.00;;;;;;20612795;28;20042;-84
2023/04/09 08:51:52;;;;;;;17.48;8.85;;;10.30;1.00;;;;;;20605524;28;20034;-86
2023/04/09 09:02:10;;;;;;;20.45;10.23;;;10.60;1.00;;;;;;20608943;28;20058;-85
2023/04/09 09:12:11;;;;;;;15.35;8.63;;;11.00;1.00;;;;;;20656938;28;20294;-86
2023/04/09 09:22:12;;;;;;;16.90;8.25;;;11.30;1.00;;;;;;20701785;28;20030;-85
2023/04/09 09:32:13;;;;;;;16.27;7.63;;;11.80;1.00;;;;;;20627005;28;20030;-86
2023/04/09 09:42:14;;;;;;;20.17;7.13;;;11.70;1.00;;;;;;20615922;28;20043;-85
2023/04/09 09:52:19;;;;;;;12.43;7.13;;;12.10;1.00;;;;;;20618788;28;20043;-85
2023/04/09 10:02:23;;;;;;;13.93;7.30;;;12.00;1.00;;;;;;20623088;28;20532;-86
2023/04/09 10:12:27;;;;;;;15.70;7.47;;;12.50;1.00;;;;;;20623522;28;20046;-84
2023/04/09 10:22:30;;;;;;;13.85;6.22;;;13.20;1.00;;;;;;20610464;28;20046;-83
2023/04/09 10:32:34;;;;;;;12.98;6.05;;;13.80;1.00;;;;;;20617851;28;21004;-82
2023/04/09 10:42:39;;;;;;;12.43;6.60;;;14.10;1.00;;;;;;20610058;28;20073;-83
2023/04/09 10:52:41;;;;;;;13.10;6.75;;;14.00;1.00;;;;;;20630265;28;20038;-82
2023/04/09 11:02:58;;;;;;;14.30;6.40;;;14.40;1.00;;;;;;20614592;28;20043;-83
2023/04/09 11:12:59;;;;;;;12.60;6.28;;;14.60;1.00;;;;;;20617792;28;20583;-81
2023/04/09 11:23:00;;;;;;;16.45;6.50;;;15.00;1.00;;;;;;20606239;28;20104;-81
2023/04/09 11:33:02;;;;;;;18.25;7.72;;;15.10;1.00;;;;;;20605578;28;20046;-82
2023/04/09 11:43:03;;;;;;;13.80;6.30;;;15.10;1.00;;;;;;20683789;28;20041;-81
2023/04/09 11:53:18;;;;;;;9.40;5.03;;;15.70;1.00;;;;;;20689946;28;20489;-80
2023/04/09 12:03:28;;;;;;;13.52;6.15;;;16.20;1.00;;;;;;20692698;28;20790;-82
2023/04/09 12:13:32;;;;;;;12.05;6.95;;;16.00;1.00;;;;;;20686668;28;22087;-82
2023/04/09 12:23:33;;;;;;;11.65;5.57;;;15.90;1.00;;;;;;20692555;28;20050;-82
2023/04/09 12:33:37;;;;;;;11.95;6.30;;;15.90;1.00;;;;;;20683637;28;20042;-83
2023/04/09 12:43:38;;;;;;;8.43;4.97;;;16.20;1.00;;;;;;20679758;28;20493;-82
2023/04/09 12:53:40;;;;;;;10.93;5.47;;;16.00;1.00;;;;;;20638930;28;20423;-82
2023/04/09 13:03:43;;;;;;;8.50;4.93;;;16.40;1.00;;;;;;20700952;28;20050;-81
2023/04/09 13:13:43;;;;;;;11.68;5.70;;;16.20;1.00;;;;;;20719626;28;20052;-81
2023/04/09 13:23:44;;;;;;;11.98;5.57;;;15.60;1.00;;;;;;20626618;28;20047;-81
2023/04/09 13:33:46;;;;;;;11.13;4.55;;;16.30;1.00;;;;;;20726625;28;20046;-81
2023/04/09 13:43:46;;;;;;;9.93;5.15;;;15.90;1.00;;;;;;20659815;28;20050;-77
2023/04/09 13:53:48;;;;;;;9.93;5.30;;;17.70;1.00;;;;;;20701194;28;20064;-81
2023/04/09 14:03:49;;;;;;;9.20;5.05;;;16.40;1.00;;;;;;20727031;28;20038;-81
2023/04/09 14:13:52;;;;;;;10.93;5.20;;;15.80;1.00;;;;;;20716456;28;20100;-80
2023/04/09 14:23:53;;;;;;;8.60;4.95;;;15.70;1.00;;;;;;20700041;28;20169;-79
2023/04/09 14:33:54;;;;;;;8.57;4.35;;;16.90;1.00;;;;;;20695460;28;20084;-81
2023/04/09 14:43:55;;;;;;;10.02;5.13;;;17.00;1.00;;;;;;20683715;28;20070;-81
2023/04/09 14:53:56;;;;;;;8.90;4.18;;;16.60;1.00;;;;;;20725310;28;20103;-81
2023/04/09 15:03:57;;;;;;;11.10;4.60;;;16.90;1.00;;;;;;20651889;28;20050;-81
2023/04/09 15:13:58;;;;;;;7.35;3.83;;;16.80;1.00;;;;;;20672761;28;20041;-80
2023/04/09 15:24:02;;;;;;;8.35;4.10;;;16.70;1.00;;;;;;20597049;28;20124;-80
2023/04/09 15:34:03;;;;;;;8.02;4.20;;;16.80;1.00;;;;;;20645236;28;20050;-81
2023/04/09 15:44:06;;;;;;;6.85;3.67;;;16.40;1.00;;;;;;20715238;28;20103;-81
2023/04/09 15:54:08;;;;;;;7.90;4.70;;;16.30;1.00;;;;;;20718343;28;20038;-81
2023/04/09 16:04:11;;;;;;;7.38;2.72;;;16.10;1.00;;;;;;20740330;28;20057;-82
2023/04/09 16:14:12;;;;;;;8.02;3.80;;;15.70;1.00;;;;;;20662128;28;20049;-82
2023/04/09 16:24:13;;;;;;;6.88;3.72;;;15.50;1.00;;;;;;20690781;28;20041;-84
2023/04/09 16:34:14;;;;;;;7.50;3.92;;;15.30;1.00;;;;;;20695700;28;20046;-81
2023/04/09 16:44:18;;;;;;;7.50;3.95;;;15.30;1.00;;;;;;20702060;28;20452;-81
2023/04/09 16:54:19;;;;;;;8.63;3.75;;;15.20;1.00;;;;;;20704134;28;20045;-81
2023/04/09 17:04:20;;;;;;;5.65;2.95;;;15.10;1.00;;;;;;20688733;28;20030;-80
2023/04/09 17:14:21;;;;;;;6.18;3.60;;;15.00;1.00;;;;;;20691760;28;20075;-81
2023/04/09 17:24:24;;;;;;;6.90;3.30;;;14.90;1.00;;;;;;20653499;28;20389;-83
2023/04/09 17:34:25;;;;;;;7.93;3.17;;;14.80;1.00;;;;;;20709023;28;20120;-84
2023/04/09 17:44:26;;;;;;;9.85;3.38;;;14.70;1.00;;;;;;20735654;28;20057;-84
2023/04/09 17:54:32;;;;;;;7.80;3.65;;;14.50;1.00;;;;;;20741085;28;20100;-84
2023/04/09 18:04:34;;;;;;;5.47;3.00;;;14.40;1.00;;;;;;20724027;28;20030;-84
2023/04/09 18:14:35;;;;;;;6.45;3.08;;;14.20;1.00;;;;;;20694506;28;20050;-84
2023/04/09 18:24:37;;;;;;;7.05;3.78;;;14.00;1.00;;;;;;20717354;28;20718;-83
2023/04/09 18:34:38;;;;;;;6.13;2.72;;;13.80;1.00;;;;;;20731736;28;20053;-83
2023/04/09 18:44:39;;;;;;;10.07;3.83;;;13.80;1.00;;;;;;20729150;28;20074;-83
2023/04/09 18:54:40;;;;;;;6.78;3.70;;;13.50;1.00;;;;;;20744205;28;20489;-83
2023/04/09 19:04:44;;;;;;;7.00;3.55;;;13.50;1.00;;;;;;20723545;28;20121;-84
2023/04/09 19:14:45;;;;;;;5.75;3.15;;;13.30;1.00;;;;;;20731819;28;20065;-83
2023/04/09 19:24:46;;;;;;;4.45;2.83;;;13.10;1.00;;;;;;20696772;28;20046;-83
2023/04/09 19:34:47;;;;;;;6.88;3.60;;;12.90;1.00;;;;;;20729355;28;20057;-84
2023/04/09 19:44:49;;;;;;;6.72;3.47;;;12.80;1.00;;;;;;20728832;28;20043;-84
2023/04/09 19:54:55;;;;;;;7.50;3.35;;;12.70;1.00;;;;;;20734052;28;20084;-83
2023/04/09 20:04:57;;;;;;;6.90;2.90;;;12.60;1.00;;;;;;20745879;28;20562;-84
2023/04/09 20:15:00;;;;;;;7.30;3.20;;;12.50;1.00;;;;;;20662479;28;20042;-85
2023/04/09 20:25:01;;;;;;;9.32;3.28;;;12.30;1.00;;;;;;20742229;28;20038;-83
2023/04/09 20:35:03;;;;;;;5.22;2.95;;;12.30;1.00;;;;;;20740700;28;20049;-83
2023/04/09 20:45:05;;;;;;;5.55;3.03;;;12.20;1.00;;;;;;20724394;28;20352;-84
2023/04/09 20:55:06;;;;;;;5.05;2.75;;;12.20;1.00;;;;;;20721216;28;20165;-82
2023/04/09 21:05:07;;;;;;;7.68;3.33;;;12.20;1.00;;;;;;20760811;28;20076;-83
2023/04/09 21:15:09;;;;;;;7.70;2.67;;;12.20;1.00;;;;;;20749999;28;20536;-84
2023/04/09 21:25:10;;;;;;;6.93;3.13;;;12.10;1.00;;;;;;20740483;28;20065;-84
2023/04/09 21:35:11;;;;;;;7.40;3.63;;;12.10;1.00;;;;;;20727841;28;20521;-85
2023/04/09 21:45:12;;;;;;;7.13;3.55;;;12.00;1.00;;;;;;20752007;28;20073;-86
2023/04/09 21:55:13;;;;;;;8.80;3.03;;;11.90;1.00;;;;;;20744429;28;20148;-84
2023/04/09 22:05:17;;;;;;;5.60;3.00;;;11.90;1.00;;;;;;20768501;28;20042;-84
2023/04/09 22:15:19;;;;;;;7.97;4.28;;;11.80;1.00;;;;;;20742118;28;20052;-84
2023/04/09 22:25:21;;;;;;;6.47;3.67;;;11.70;1.00;;;;;;20765105;28;20049;-84
2023/04/09 22:35:22;;;;;;;7.35;3.25;;;11.60;1.00;;;;;;20755482;28;20104;-84
2023/04/09 22:45:26;;;;;;;7.05;3.60;;;11.50;1.00;;;;;;20755001;28;20034;-84
2023/04/09 22:55:27;;;;;;;6.60;3.22;;;11.40;1.00;;;;;;20723792;28;20034;-85
2023/04/09 23:05:28;;;;;;;8.93;3.70;;;11.40;1.00;;;;;;20739861;28;20033;-85
2023/04/09 23:15:29;;;;;;;9.25;4.25;;;11.30;1.00;;;;;;20763166;28;20038;-82
2023/04/09 23:25:30;;;;;;;8.73;4.25;;;11.20;1.00;;;;;;20752256;28;20084;-83
2023/04/09 23:35:31;;;;;;;7.47;4.10;;;11.10;1.00;;;;;;20721034;28;20046;-81
2023/04/09 23:45:32;;;;;;;8.23;4.15;;;11.00;1.00;;;;;;20748743;28;20038;-84
2023/04/09 23:55:37;;;;;;;9.02;5.35;;;10.80;1.00;;;;;;20760892;28;20042;-81
